Time;durP1;ratioP1;P1;durP2;ratioP2;P2;SDS_P1;SDS_P2;PMS_P1;PMS_P2;Temp;Humidity;BMP_temperature;BMP_pressure;BME280_temperature;BME280_humidity;BME280_pressure;Samples;Min_cycle;Max_cycle;Signal;HPM_P1;HPM_P2
2022/04/18 07:58:37;;;;;;;4.32;3.13;;;;;;;12.56;37.16;101770.06;5329233;27;20428;-71
2022/04/18 08:01:08;;;;;;;2.60;2.40;;;;;;;12.65;37.00;101769.47;5301975;28;20115;-71
2022/04/18 08:03:40;;;;;;;3.65;3.05;;;;;;;12.73;36.63;101766.97;5301462;28;20036;-72
2022/04/18 08:06:12;;;;;;;4.53;2.63;;;;;;;12.88;37.26;101771.63;5301836;28;20442;-71
2022/04/18 08:08:43;;;;;;;4.43;3.05;;;;;;;12.95;36.54;101765.78;5301124;28;20460;-71
2022/04/18 08:11:15;;;;;;;3.97;2.67;;;;;;;13.12;36.87;101768.25;5300960;28;20016;-72
2022/04/18 08:13:48;;;;;;;4.22;3.60;;;;;;;13.17;36.31;101771.00;5301035;28;20033;-71
2022/04/18 08:16:20;;;;;;;3.58;2.75;;;;;;;13.23;35.25;101767.06;5300070;28;20028;-71
2022/04/18 08:18:51;;;;;;;3.53;2.80;;;;;;;13.32;35.13;101768.19;5302288;28;20084;-71
2022/04/18 08:21:22;;;;;;;3.92;2.45;;;;;;;13.34;34.38;101774.28;5301258;28;20111;-71
2022/04/18 08:23:54;;;;;;;2.83;2.53;;;;;;;13.39;34.81;101774.25;5300776;28;20556;-71
2022/04/18 08:26:25;;;;;;;3.65;2.90;;;;;;;13.42;34.38;101784.00;5300444;28;20074;-71
2022/04/18 08:28:56;;;;;;;4.40;2.75;;;;;;;13.47;36.19;101779.25;5299139;28;20037;-71
2022/04/18 08:31:28;;;;;;;3.22;2.45;;;;;;;13.53;34.57;101782.03;5299060;28;20101;-70
2022/04/18 08:33:59;;;;;;;4.50;3.13;;;;;;;13.56;35.13;101781.44;5300027;28;20099;-71
2022/04/18 08:36:33;;;;;;;4.60;2.60;;;;;;;13.57;35.17;101777.53;5300114;28;20042;-71
2022/04/18 08:39:04;;;;;;;3.25;2.30;;;;;;;13.72;35.00;101773.81;5299778;28;20039;-71
2022/04/18 08:41:38;;;;;;;3.30;2.95;;;;;;;13.77;34.27;101777.41;5300386;28;20024;-71
2022/04/18 08:44:12;;;;;;;3.38;2.65;;;;;;;13.76;33.93;101781.31;5299487;28;20026;-71
2022/04/18 08:46:44;;;;;;;4.38;2.20;;;;;;;13.88;34.05;101779.00;5300404;28;20020;-70
2022/04/18 08:52:43;;;;;;;3.53;2.50;;;;;;;14.01;34.41;101787.81;5299432;28;20052;-70
2022/04/18 08:55:04;;;;;;;2.75;2.40;;;;;;;14.08;33.64;101777.19;5299649;28;20024;-72
2022/04/18 08:57:35;;;;;;;4.53;2.55;;;;;;;14.21;34.22;101779.28;5299555;28;20055;-71
2022/04/18 09:00:07;;;;;;;4.38;2.47;;;;;;;14.28;33.16;101776.19;5299183;28;20086;-71
2022/04/18 09:02:38;;;;;;;2.63;2.03;;;;;;;14.28;33.30;101771.44;5299632;28;20101;-71
2022/04/18 09:05:11;;;;;;;4.15;2.47;;;;;;;14.36;33.88;101781.97;5299273;28;20430;-71
2022/04/18 09:07:59;;;;;;;3.67;2.60;;;;;;;14.47;33.59;101776.28;5298770;28;20107;-71
2022/04/18 09:10:30;;;;;;;3.95;2.55;;;;;;;14.47;33.64;101770.69;5285738;28;20383;-71
2022/04/18 09:13:14;;;;;;;4.85;3.13;;;;;;;14.50;32.92;101767.34;5284706;28;20028;-71
2022/04/18 09:15:49;;;;;;;3.85;2.78;;;;;;;14.49;32.89;101774.03;5285872;28;20436;-71
2022/04/18 09:18:22;;;;;;;3.05;2.60;;;;;;;14.57;33.37;101779.00;5297660;28;20467;-72
2022/04/18 09:20:56;;;;;;;3.60;2.83;;;;;;;14.60;33.81;101770.06;5289702;28;20032;-70
2022/04/18 09:23:29;;;;;;;4.82;2.90;;;;;;;14.69;33.67;101771.06;5285687;28;20032;-72
2022/04/18 09:26:06;;;;;;;3.50;2.88;;;;;;;14.79;34.05;101761.75;5294892;28;20375;-71
2022/04/18 09:28:42;;;;;;;4.15;2.67;;;;;;;14.78;33.49;101769.31;5291430;28;20383;-70
2022/04/18 09:31:16;;;;;;;;;;;;;;;14.91;33.65;101769.75;5293417;28;20036;-71
2022/04/18 09:33:56;;;;;;;3.85;2.50;;;;;;;14.94;33.78;101771.94;5285688;28;19919;-70
2022/04/18 09:36:27;;;;;;;3.45;2.47;;;;;;;15.03;33.59;101764.56;5285399;28;20032;-70
2022/04/18 09:38:59;;;;;;;4.03;3.10;;;;;;;15.12;33.72;101764.75;5285006;28;20033;-70
2022/04/18 09:41:32;;;;;;;3.13;2.50;;;;;;;15.13;33.11;101761.63;5284096;28;20070;-71
2022/04/18 09:44:04;;;;;;;3.50;3.13;;;;;;;15.17;33.67;101764.69;5284975;28;20100;-71
2022/04/18 09:46:41;;;;;;;3.55;2.50;;;;;;;15.17;33.60;101759.09;5279195;28;20126;-71
2022/04/18 09:49:13;;;;;;;3.40;3.10;;;;;;;15.12;32.92;101757.19;5284066;28;20052;-71
2022/04/18 09:51:45;;;;;;;3.70;3.10;;;;;;;15.21;32.38;101749.81;5284991;28;20498;-70
2022/04/18 09:54:18;;;;;;;3.05;2.53;;;;;;;15.25;32.17;101740.84;5283832;28;20033;-70
2022/04/18 09:56:50;;;;;;;3.45;2.67;;;;;;;15.30;32.33;101740.75;5283933;28;20055;-71
2022/04/18 09:59:22;;;;;;;2.95;2.70;;;;;;;15.31;30.75;101739.63;5285009;28;20071;-70
2022/04/18 10:01:53;;;;;;;2.90;2.50;;;;;;;15.35;30.80;101749.09;5283754;28;20060;-70
2022/04/18 10:04:26;;;;;;;3.70;2.50;;;;;;;15.39;31.00;101742.59;5284925;28;20063;-70
2022/04/18 10:07:01;;;;;;;5.38;2.83;;;;;;;15.53;30.35;101739.88;5284628;28;20025;-69
2022/04/18 10:09:33;;;;;;;5.65;4.22;;;;;;;15.64;30.79;101740.56;5284244;28;20071;-72
2022/04/18 10:12:05;;;;;;;3.78;3.30;;;;;;;15.63;30.70;101742.53;5284810;28;20425;-70
2022/04/18 10:14:37;;;;;;;3.10;2.85;;;;;;;15.66;30.21;101732.69;5284703;28;20021;-71
2022/04/18 10:17:10;;;;;;;3.45;3.08;;;;;;;15.75;30.05;101728.13;5284108;28;20043;-70
2022/04/18 10:20:03;;;;;;;5.05;3.03;;;;;;;15.81;30.12;101723.28;5283662;28;20025;-71
2022/04/18 10:23:03;;;;;;;8.55;7.15;;;;;;;15.83;29.12;101726.59;5284310;28;20032;-70
2022/04/18 10:26:00;;;;;;;4.20;3.28;;;;;;;15.97;29.92;101721.88;5284439;28;20123;-71
2022/04/18 10:28:35;;;;;;;3.33;2.90;;;;;;;15.99;30.41;101722.41;5284334;28;20052;-71
2022/04/18 10:31:17;;;;;;;4.47;3.20;;;;;;;16.17;29.09;101715.13;5286435;28;20029;-70
2022/04/18 10:33:49;;;;;;;3.35;2.90;;;;;;;16.17;29.84;101709.53;5284248;28;20025;-70
2022/04/18 10:36:25;;;;;;;4.40;3.00;;;;;;;16.38;29.57;101709.97;5283299;28;20060;-71
2022/04/18 10:39:02;;;;;;;4.50;3.42;;;;;;;16.40;30.10;101709.69;5283870;28;20032;-70
2022/04/18 10:41:44;;;;;;;4.25;3.60;;;;;;;16.37;29.30;101708.31;5283959;28;20647;-70
2022/04/18 10:44:17;;;;;;;4.60;3.60;;;;;;;16.38;28.51;101707.19;5282966;28;20135;-71
2022/04/18 10:46:51;;;;;;;4.60;3.95;;;;;;;16.37;28.24;101701.91;5300478;28;20467;-70
2022/04/18 10:49:24;;;;;;;4.50;3.47;;;;;;;16.39;28.84;101705.22;5283596;28;20435;-70
2022/04/18 10:51:55;;;;;;;3.45;3.15;;;;;;;16.48;28.76;101704.19;5282537;28;20024;-70
2022/04/18 10:54:30;;;;;;;4.18;3.50;;;;;;;16.56;28.94;101701.81;5283075;28;20379;-70
2022/04/18 10:57:11;;;;;;;5.43;3.55;;;;;;;16.55;28.65;101691.78;5283101;28;20045;-70
2022/04/18 10:59:45;;;;;;;3.65;3.30;;;;;;;16.41;28.17;101688.94;5282580;28;20036;-70
2022/04/18 11:02:39;;;;;;;3.03;2.67;;;;;;;16.67;28.92;101695.72;5283604;28;20025;-71
2022/04/18 11:05:10;;;;;;;4.45;3.00;;;;;;;16.81;28.25;101698.53;5282514;28;20444;-70
2022/04/18 11:07:44;;;;;;;4.80;2.95;;;;;;;16.79;28.63;101695.22;5283444;28;20036;-71
2022/04/18 11:10:20;;;;;;;4.15;3.30;;;;;;;17.06;27.47;101685.16;5287299;28;20040;-72
2022/04/18 11:12:57;;;;;;;4.43;2.90;;;;;;;17.17;27.86;101689.38;5294524;28;20100;-71
2022/04/18 11:15:28;;;;;;;4.78;3.95;;;;;;;17.15;27.59;101684.09;5283642;28;20117;-70
2022/04/18 11:18:01;;;;;;;5.05;4.43;;;;;;;17.14;28.00;101679.63;5283053;28;20033;-71
2022/04/18 11:20:35;;;;;;;5.90;3.33;;;;;;;17.37;28.77;101674.91;5282212;28;20067;-71
2022/04/18 11:23:30;;;;;;;4.07;3.42;;;;;;;17.39;28.00;101678.22;5282862;28;20032;-71
2022/04/18 11:26:03;;;;;;;5.03;4.53;;;;;;;17.21;27.25;101676.41;5282310;28;20471;-70
2022/04/18 11:28:39;;;;;;;4.22;3.28;;;;;;;17.41;29.16;101663.03;5284058;28;20086;-72
2022/04/18 11:31:16;;;;;;;;;;;;;;;17.63;28.08;101673.47;5283210;28;20023;-71
2022/04/18 11:33:47;;;;;;;4.45;3.22;;;;;;;17.73;27.60;101674.06;5282209;28;19913;-71
2022/04/18 11:36:24;;;;;;;3.78;3.38;;;;;;;17.89;28.44;101663.28;5283192;28;20032;-72
2022/04/18 11:39:07;;;;;;;3.55;3.10;;;;;;;17.91;28.13;101665.78;5282403;28;20029;-70
2022/04/18 11:41:38;;;;;;;5.18;3.80;;;;;;;18.07;28.73;101666.22;5282007;28;20038;-70
2022/04/18 11:44:10;;;;;;;4.35;3.67;;;;;;;18.14;27.64;101670.22;5282397;28;20020;-71
2022/04/18 11:46:41;;;;;;;5.07;3.45;;;;;;;18.04;27.70;101664.88;5281956;28;20391;-71
2022/04/18 11:49:12;;;;;;;4.88;3.30;;;;;;;18.16;26.85;101667.94;5282689;28;20324;-71
2022/04/18 11:51:44;;;;;;;7.60;3.92;;;;;;;18.25;27.08;101660.41;5282715;28;20033;-70
2022/04/18 11:54:15;;;;;;;4.68;3.33;;;;;;;18.04;26.49;101668.50;5292449;28;20028;-71
2022/04/18 11:57:00;;;;;;;5.50;4.03;;;;;;;18.14;26.45;101669.41;5287300;28;20444;-71
2022/04/18 11:59:32;;;;;;;4.28;2.90;;;;;;;18.20;26.01;101657.72;5281975;28;20028;-72
2022/04/18 12:07:47;;;;;;;4.72;3.70;;;;;;;18.45;26.53;101649.75;5281361;28;20033;-71
2022/04/18 12:10:24;;;;;;;5.07;3.70;;;;;;;18.51;26.45;101659.69;5282608;28;20108;-70
2022/04/18 12:12:58;;;;;;;6.10;2.83;;;;;;;18.57;27.42;101655.59;5282339;28;20021;-70
2022/04/18 12:15:30;;;;;;;3.50;2.93;;;;;;;18.52;25.61;101646.47;5281852;28;20033;-70
2022/04/18 12:18:13;;;;;;;5.15;3.50;;;;;;;18.61;26.37;101645.38;5282027;28;20031;-69
2022/04/18 12:20:46;;;;;;;6.10;5.50;;;;;;;18.54;25.70;101645.00;5279561;28;20032;-72
2022/04/18 12:23:21;;;;;;;4.10;3.70;;;;;;;18.64;26.01;101639.09;5278378;28;20029;-71
2022/04/18 12:25:59;;;;;;;5.90;3.25;;;;;;;18.78;26.69;101649.41;5280618;28;20025;-69
2022/04/18 12:28:32;;;;;;;5.53;4.00;;;;;;;18.73;25.98;101635.47;5282442;28;20037;-70
2022/04/18 12:31:11;;;;;;;4.03;3.58;;;;;;;18.82;26.34;101630.75;5279760;28;20024;-71
2022/04/18 12:33:48;;;;;;;5.25;3.80;;;;;;;19.23;26.17;101629.50;5281899;28;20558;-70
2022/04/18 12:36:28;;;;;;;4.40;3.70;;;;;;;19.25;26.78;101619.56;5281508;28;20052;-69
2022/04/18 12:39:00;;;;;;;4.35;3.95;;;;;;;19.31;26.20;101611.78;5280887;28;20082;-70
2022/04/18 12:41:33;;;;;;;6.15;3.58;;;;;;;19.50;26.36;101614.25;5281531;28;20024;-70
2022/04/18 12:44:13;;;;;;;6.20;4.63;;;;;;;19.45;25.69;101606.81;5282834;28;20037;-70
2022/04/18 12:46:44;;;;;;;4.05;3.63;;;;;;;19.57;26.95;101597.72;5285899;28;20086;-70
2022/04/18 12:49:15;;;;;;;4.68;4.03;;;;;;;19.55;26.52;101600.84;5286276;28;20021;-70
2022/04/18 12:51:50;;;;;;;6.05;4.15;;;;;;;19.60;25.45;101599.03;5285335;28;20020;-70
2022/04/18 12:54:26;;;;;;;4.40;3.67;;;;;;;19.53;26.81;101602.34;5274619;28;20032;-70
2022/04/18 12:56:57;;;;;;;4.80;4.25;;;;;;;19.47;25.56;101598.88;5280603;28;20271;-70
2022/04/18 12:59:32;;;;;;;3.90;3.47;;;;;;;19.68;25.15;101598.22;5273921;28;20028;-70
2022/04/18 13:02:08;;;;;;;4.20;3.80;;;;;;;19.75;24.70;101582.47;5297708;28;20514;-70
2022/04/18 13:04:40;;;;;;;3.80;3.47;;;;;;;19.80;26.94;101589.94;5284986;28;20067;-71
2022/04/18 13:07:12;;;;;;;3.78;3.38;;;;;;;19.75;24.63;101582.47;5304237;28;20064;-71
2022/04/18 13:09:43;;;;;;;3.80;3.30;;;;;;;20.10;24.19;101581.56;5286729;28;20027;-70
2022/04/18 13:12:15;;;;;;;3.78;3.10;;;;;;;20.20;24.49;101584.84;5284991;28;20032;-70
2022/04/18 13:14:58;;;;;;;4.30;3.85;;;;;;;20.26;23.95;101585.47;5285879;28;20048;-70
2022/04/18 13:17:32;;;;;;;3.83;2.97;;;;;;;20.19;24.15;101576.72;5285485;28;20146;-71
2022/04/18 13:20:07;;;;;;;3.67;2.95;;;;;;;20.50;23.73;101579.22;5284843;28;20105;-70
2022/04/18 13:22:39;;;;;;;3.88;2.95;;;;;;;20.55;22.57;101581.88;5285359;28;20025;-70
2022/04/18 13:25:12;;;;;;;5.43;3.40;;;;;;;20.66;23.56;101573.88;5282676;28;20037;-72
2022/04/18 13:27:45;;;;;;;2.85;2.58;;;;;;;21.00;22.28;101580.44;5285567;28;20031;-72
2022/04/18 13:30:16;;;;;;;5.05;3.28;;;;;;;21.10;21.24;101568.75;5285310;28;20021;-72
2022/04/18 13:32:47;;;;;;;4.00;3.60;;;;;;;20.97;20.98;101576.31;5284469;28;20024;-71
2022/04/18 13:35:20;;;;;;;4.50;3.13;;;;;;;21.24;22.06;101566.47;5285377;28;20035;-71
2022/04/18 13:37:51;;;;;;;2.75;2.28;;;;;;;21.33;20.03;101565.56;5285066;28;20025;-72
2022/04/18 13:40:23;;;;;;;4.38;2.53;;;;;;;21.26;21.30;101563.31;5282344;28;20388;-72
2022/04/18 13:42:54;;;;;;;3.90;2.35;;;;;;;21.55;22.56;101562.41;5285253;28;20020;-71
2022/04/18 13:45:25;;;;;;;2.90;2.60;;;;;;;21.37;21.46;101550.44;5284691;28;20037;-72
2022/04/18 13:47:57;;;;;;;3.50;2.10;;;;;;;21.43;23.67;101551.06;5284630;28;20472;-72
2022/04/18 13:50:28;;;;;;;3.08;2.78;;;;;;;21.52;21.49;101551.78;5284974;28;20028;-72
2022/04/18 13:52:59;;;;;;;3.15;2.55;;;;;;;21.30;20.79;101543.72;5285120;28;20037;-72
2022/04/18 13:55:32;;;;;;;4.32;2.88;;;;;;;21.56;21.94;101549.13;5283800;28;20028;-72
2022/04/18 13:58:05;;;;;;;3.00;2.60;;;;;;;21.41;21.21;101540.13;5284566;28;20044;-72
2022/04/18 14:00:39;;;;;;;4.03;2.67;;;;;;;21.46;21.71;101548.38;5283941;28;20032;-71
2022/04/18 14:03:10;;;;;;;3.28;2.30;;;;;;;21.35;20.43;101535.03;5285031;28;20112;-71
2022/04/18 14:05:42;;;;;;;3.05;2.53;;;;;;;21.34;21.29;101539.81;5284654;28;20123;-72
2022/04/18 14:08:13;;;;;;;3.92;2.45;;;;;;;21.60;21.27;101536.78;5267178;28;20631;-72
2022/04/18 14:10:45;;;;;;;3.38;2.33;;;;;;;21.67;21.72;101528.56;5284396;28;20361;-73
2022/04/18 14:13:16;;;;;;;4.03;3.63;;;;;;;21.81;21.35;101535.91;5284682;28;20020;-73
2022/04/18 14:21:39;;;;;;;3.85;2.45;;;;;;;21.90;20.32;101508.38;5283970;28;20435;-70
2022/04/18 14:24:11;;;;;;;3.03;2.72;;;;;;;22.13;20.36;101509.56;5284626;28;20053;-72
2022/04/18 14:26:42;;;;;;;4.38;2.40;;;;;;;22.18;22.83;101502.84;5284202;28;20060;-73
2022/04/18 14:29:13;;;;;;;3.65;2.50;;;;;;;22.31;21.48;101503.72;5283708;28;20426;-68
2022/04/18 14:31:45;;;;;;;3.92;2.63;;;;;;;22.15;20.66;101495.91;5284274;28;20032;-69
2022/04/18 14:34:16;;;;;;;3.97;2.53;;;;;;;22.18;21.07;101493.56;5283443;28;20012;-71
2022/04/18 14:36:47;;;;;;;3.67;2.40;;;;;;;22.38;22.92;101484.16;5282550;28;20113;-70
2022/04/18 14:39:21;;;;;;;4.50;2.40;;;;;;;22.22;23.26;101486.91;5283891;28;20028;-69
2022/04/18 14:41:52;;;;;;;9.85;8.90;;;;;;;22.23;23.77;101484.88;5275205;28;20040;-70
2022/04/18 14:44:24;;;;;;;2.83;2.63;;;;;;;22.29;23.03;101478.66;5276257;28;20032;-70
2022/04/18 14:46:55;;;;;;;4.78;3.55;;;;;;;22.22;23.26;101486.91;5284262;28;20036;-69
2022/04/18 14:49:27;;;;;;;4.68;2.70;;;;;;;22.03;21.60;101476.13;5283103;28;20040;-71
2022/04/18 14:51:58;;;;;;;3.97;2.80;;;;;;;21.99;21.46;101480.03;5283384;28;20049;-69
2022/04/18 14:54:29;;;;;;;4.35;3.03;;;;;;;21.89;23.28;101478.50;5284186;28;20032;-71
2022/04/18 14:57:02;;;;;;;3.10;2.45;;;;;;;21.77;22.71;101478.47;5282681;28;20052;-70
2022/04/18 14:59:34;;;;;;;2.83;2.50;;;;;;;21.52;21.89;101474.78;5283647;28;20074;-69
2022/04/18 15:02:05;;;;;;;3.65;2.58;;;;;;;21.65;22.22;101466.00;5283281;28;20036;-71
2022/04/18 15:04:37;;;;;;;3.00;2.63;;;;;;;21.65;21.46;101460.38;5282744;28;20035;-70
2022/04/18 15:07:08;;;;;;;3.83;2.60;;;;;;;21.48;22.25;101460.56;5282615;28;20032;-71
2022/04/18 15:09:39;;;;;;;3.47;2.47;;;;;;;21.55;23.81;101454.31;5283586;28;20476;-70
2022/04/18 15:12:11;;;;;;;3.80;2.70;;;;;;;21.54;22.61;101461.97;5282487;28;20056;-71
2022/04/18 15:14:42;;;;;;;2.67;2.30;;;;;;;21.43;22.65;101455.16;5283515;28;20025;-69
2022/04/18 15:17:13;;;;;;;5.95;2.75;;;;;;;21.25;20.94;101452.47;5290258;28;20099;-70
2022/04/18 15:19:44;;;;;;;3.05;2.72;;;;;;;21.21;22.44;101459.97;5291387;28;20024;-70
2022/04/18 15:22:16;;;;;;;2.72;2.30;;;;;;;21.37;22.30;101459.31;5282624;28;20537;-70
2022/04/18 15:24:48;;;;;;;4.28;2.50;;;;;;;21.24;21.43;101448.00;5282094;28;20349;-70
2022/04/18 15:27:19;;;;;;;6.05;2.70;;;;;;;21.15;21.45;101447.28;5282966;28;20035;-70
2022/04/18 15:32:40;;;;;;;2.65;2.28;;;;;;;21.14;22.51;101437.16;5282511;28;20468;-71
2022/04/18 15:35:11;;;;;;;3.97;2.55;;;;;;;21.35;22.37;101439.13;5283025;28;20033;-71
2022/04/18 15:37:48;;;;;;;3.42;2.20;;;;;;;21.38;21.71;101441.22;5275163;28;20033;-70
2022/04/18 15:40:19;;;;;;;2.78;2.20;;;;;;;21.35;21.47;101430.66;5276341;28;20456;-71
2022/04/18 15:42:51;;;;;;;4.63;2.53;;;;;;;21.26;21.59;101442.00;5282015;28;20020;-69
2022/04/18 15:45:22;;;;;;;2.53;2.30;;;;;;;21.22;21.82;101447.53;5283215;28;20385;-71
2022/04/18 15:47:56;;;;;;;3.75;2.00;;;;;;;21.24;23.33;101442.38;5281930;28;20337;-71
2022/04/18 15:50:31;;;;;;;5.93;4.80;;;;;;;21.28;22.66;101439.66;5283168;28;20048;-70
2022/04/18 15:53:02;;;;;;;2.67;2.33;;;;;;;21.27;22.62;101432.41;5281826;28;20020;-70
2022/04/18 15:55:37;;;;;;;3.20;2.20;;;;;;;21.35;21.40;101439.13;5282548;28;20510;-70
2022/04/18 15:58:08;;;;;;;2.25;1.88;;;;;;;21.15;20.15;101433.16;5282339;28;20048;-71
2022/04/18 16:00:39;;;;;;;6.15;3.25;;;;;;;21.26;20.81;101437.19;5281597;28;20029;-71
2022/04/18 16:03:11;;;;;;;3.47;1.90;;;;;;;21.35;22.61;101427.81;5278951;28;20547;-70
2022/04/18 16:05:43;;;;;;;3.83;3.35;;;;;;;21.25;22.73;101435.56;5279585;28;20025;-70
2022/04/18 16:08:14;;;;;;;3.75;2.10;;;;;;;21.04;20.87;101437.59;5280942;28;20040;-70
2022/04/18 16:10:46;;;;;;;4.10;2.35;;;;;;;21.03;23.72;101435.94;5281878;28;20107;-70
2022/04/18 16:13:18;;;;;;;3.03;2.50;;;;;;;21.03;22.59;101428.28;5281087;28;20029;-70
2022/04/18 16:15:52;;;;;;;3.40;2.30;;;;;;;21.11;22.54;101437.84;5281381;28;20028;-70
2022/04/18 16:18:23;;;;;;;2.78;2.50;;;;;;;21.01;23.75;101436.31;5283439;28;20028;-70
2022/04/18 16:20:55;;;;;;;3.88;2.22;;;;;;;21.10;22.67;101429.75;5284037;28;20106;-70
2022/04/18 16:23:26;;;;;;;4.25;2.50;;;;;;;21.13;23.83;101429.03;5282859;28;20074;-69
2022/04/18 16:25:57;;;;;;;3.50;2.80;;;;;;;21.11;23.89;101423.75;5284097;28;20375;-70
2022/04/18 16:28:28;;;;;;;9.10;5.82;;;;;;;21.08;23.14;101418.81;5285375;28;20081;-69
2022/04/18 16:33:53;;;;;;;3.35;2.75;;;;;;;21.00;22.46;101416.91;5286211;28;20032;-70
2022/04/18 16:36:25;;;;;;;4.35;3.15;;;;;;;21.02;23.77;101406.94;5284411;28;20025;-70
2022/04/18 16:38:56;;;;;;;3.58;2.40;;;;;;;20.96;23.76;101408.31;5284337;28;20458;-70
2022/04/18 16:47:07;;;;;;;3.40;2.60;;;;;;;21.05;23.58;101400.59;5286145;28;20466;-69
2022/04/18 16:49:38;;;;;;;2.78;2.40;;;;;;;20.89;24.71;101393.97;5285196;28;20127;-70
2022/04/18 16:52:10;;;;;;;4.03;2.70;;;;;;;20.89;23.52;101407.22;5285516;28;20432;-69
2022/04/18 16:54:42;;;;;;;4.20;2.65;;;;;;;20.80;23.27;101399.66;5284893;28;20086;-70
2022/04/18 16:57:16;;;;;;;3.00;2.70;;;;;;;20.92;22.56;101403.72;5285252;28;20045;-70
2022/04/18 17:00:02;;;;;;;5.60;2.67;;;;;;;20.82;24.69;101400.16;5285958;28;20032;-70
2022/04/18 17:02:33;;;;;;;2.53;2.28;;;;;;;20.83;23.65;101395.34;5285808;28;20116;-69
2022/04/18 17:05:06;;;;;;;3.28;2.28;;;;;;;20.66;24.21;101387.88;5284919;28;20099;-71
2022/04/18 17:07:38;;;;;;;3.33;2.13;;;;;;;20.70;25.23;101400.09;5285627;28;20035;-70
2022/04/18 17:10:11;;;;;;;3.13;2.03;;;;;;;20.58;24.00;101400.03;5284634;28;20384;-71
2022/04/18 17:12:43;;;;;;;1.80;1.70;;;;;;;20.53;25.14;101403.03;5285524;28;20036;-71
2022/04/18 17:15:14;;;;;;;3.65;1.75;;;;;;;20.35;24.52;101408.81;5286031;28;20032;-70
2022/04/18 17:17:46;;;;;;;2.97;2.00;;;;;;;20.34;23.78;101404.34;5284854;28;20031;-71
2022/04/18 17:20:17;;;;;;;2.60;1.83;;;;;;;20.37;26.48;101403.63;5285317;28;20393;-70
2022/04/18 17:22:48;;;;;;;3.35;2.10;;;;;;;20.31;24.71;101402.22;5285491;28;20029;-71
2022/04/18 17:25:20;;;;;;;6.57;3.22;;;;;;;20.18;24.68;101404.13;5283381;28;20060;-70
2022/04/18 17:27:51;;;;;;;3.67;2.15;;;;;;;20.13;25.07;101395.06;5283843;28;20033;-69
